sensor_id;sensor_type;location;lat;lon;timestamp;pressure;altitude;pressure_sealevel;temperature;humidity
47750;BME280;49810;48.160;10.812;2022-11-06T00:00:43;95673.25;;;2.41;94.42
47750;BME280;49810;48.160;10.812;2022-11-06T00:03:11;95671.28;;;2.43;94.71
47750;BME280;49810;48.160;10.812;2022-11-06T00:05:41;95666.34;;;2.33;94.42
47750;BME280;49810;48.160;10.812;2022-11-06T00:08:29;95664.47;;;2.27;94.75
47750;BME280;49810;48.160;10.812;2022-11-06T00:10:57;95669.41;;;2.22;94.66
47750;BME280;49810;48.160;10.812;2022-11-06T00:13:28;95668.53;;;2.15;94.85
47750;BME280;49810;48.160;10.812;2022-11-06T00:15:58;95665.31;;;2.13;94.75
47750;BME280;49810;48.160;10.812;2022-11-06T00:18:28;95674.03;;;2.06;94.97
47750;BME280;49810;48.160;10.812;2022-11-06T00:20:56;95665.69;;;2.10;94.71
47750;BME280;49810;48.160;10.812;2022-11-06T00:23:24;95671.97;;;2.16;94.97
47750;BME280;49810;48.160;10.812;2022-11-06T00:25:52;95669.41;;;2.22;95.14
47750;BME280;49810;48.160;10.812;2022-11-06T00:28:22;95659.53;;;2.18;94.79
47750;BME280;49810;48.160;10.812;2022-11-06T00:30:59;95651.53;;;2.19;95.09
47750;BME280;49810;48.160;10.812;2022-11-06T00:33:27;95656.28;;;2.30;95.11
47750;BME280;49810;48.160;10.812;2022-11-06T00:35:56;95656.84;;;2.26;95.17
47750;BME280;49810;48.160;10.812;2022-11-06T00:38:24;95666.19;;;2.20;95.11
47750;BME280;49810;48.160;10.812;2022-11-06T00:40:52;95666.38;;;2.19;95.25
47750;BME280;49810;48.160;10.812;2022-11-06T00:43:20;95673.41;;;2.18;95.15
47750;BME280;49810;48.160;10.812;2022-11-06T00:45:48;95668.91;;;2.12;95.30
47750;BME280;49810;48.160;10.812;2022-11-06T00:48:18;95674.50;;;2.09;95.41
47750;BME280;49810;48.160;10.812;2022-11-06T00:50:46;95666.41;;;2.04;95.40
47750;BME280;49810;48.160;10.812;2022-11-06T00:53:14;95656.88;;;1.97;95.26
47750;BME280;49810;48.160;10.812;2022-11-06T00:55:42;95656.53;;;2.00;95.22
47750;BME280;49810;48.160;10.812;2022-11-06T00:58:10;95657.09;;;1.95;95.67
47750;BME280;49810;48.160;10.812;2022-11-06T01:00:39;95654.00;;;1.92;95.42
47750;BME280;49810;48.160;10.812;2022-11-06T01:03:07;95649.31;;;2.02;95.57
47750;BME280;49810;48.160;10.812;2022-11-06T01:05:37;95654.19;;;1.90;95.21
47750;BME280;49810;48.160;10.812;2022-11-06T01:08:05;95648.97;;;1.90;95.41
47750;BME280;49810;48.160;10.812;2022-11-06T01:10:35;95658.69;;;1.96;95.62
47750;BME280;49810;48.160;10.812;2022-11-06T01:13:04;95659.88;;;1.94;95.55
47750;BME280;49810;48.160;10.812;2022-11-06T01:15:34;95656.88;;;1.97;95.72
47750;BME280;49810;48.160;10.812;2022-11-06T01:18:03;95664.53;;;1.98;95.45
47750;BME280;49810;48.160;10.812;2022-11-06T01:20:31;95659.13;;;2.00;95.35
47750;BME280;49810;48.160;10.812;2022-11-06T01:23:00;95648.59;;;2.08;95.31
47750;BME280;49810;48.160;10.812;2022-11-06T01:25:29;95654.09;;;1.84;94.91
47750;BME280;49810;48.160;10.812;2022-11-06T01:27:57;95644.41;;;1.78;95.09
47750;BME280;49810;48.160;10.812;2022-11-06T01:30:25;95648.38;;;1.74;95.13
47750;BME280;49810;48.160;10.812;2022-11-06T01:32:53;95651.22;;;1.79;95.24
47750;BME280;49810;48.160;10.812;2022-11-06T01:35:21;95648.72;;;1.85;95.29
47750;BME280;49810;48.160;10.812;2022-11-06T01:37:50;95650.78;;;1.75;95.04
47750;BME280;49810;48.160;10.812;2022-11-06T01:40:19;95640.19;;;1.62;95.21
47750;BME280;49810;48.160;10.812;2022-11-06T01:42:47;95643.59;;;1.48;94.92
47750;BME280;49810;48.160;10.812;2022-11-06T01:45:25;95642.53;;;1.57;95.31
47750;BME280;49810;48.160;10.812;2022-11-06T01:47:54;95630.31;;;1.43;95.27
47750;BME280;49810;48.160;10.812;2022-11-06T01:50:22;95630.78;;;1.32;95.23
47750;BME280;49810;48.160;10.812;2022-11-06T01:52:51;95633.16;;;1.34;95.17
47750;BME280;49810;48.160;10.812;2022-11-06T01:55:24;95627.25;;;1.25;95.17
47750;BME280;49810;48.160;10.812;2022-11-06T01:57:53;95620.44;;;1.24;95.37
47750;BME280;49810;48.160;10.812;2022-11-06T02:00:22;95617.19;;;1.22;95.38
47750;BME280;49810;48.160;10.812;2022-11-06T02:02:52;95622.59;;;1.21;95.38
47750;BME280;49810;48.160;10.812;2022-11-06T02:05:20;95610.16;;;1.08;95.29
47750;BME280;49810;48.160;10.812;2022-11-06T02:07:49;95613.56;;;0.94;95.49
47750;BME280;49810;48.160;10.812;2022-11-06T02:10:18;95606.03;;;0.85;95.21
47750;BME280;49810;48.160;10.812;2022-11-06T02:12:53;95611.22;;;0.85;95.25
47750;BME280;49810;48.160;10.812;2022-11-06T02:15:35;95610.06;;;0.87;95.28
47750;BME280;49810;48.160;10.812;2022-11-06T02:18:23;95612.56;;;0.95;95.22
47750;BME280;49810;48.160;10.812;2022-11-06T02:21:19;95606.22;;;1.12;95.28
47750;BME280;49810;48.160;10.812;2022-11-06T02:24:03;95605.59;;;1.25;95.27
47750;BME280;49810;48.160;10.812;2022-11-06T02:26:56;95602.91;;;1.33;95.33
47750;BME280;49810;48.160;10.812;2022-11-06T02:29:30;95596.28;;;1.30;95.22
47750;BME280;49810;48.160;10.812;2022-11-06T02:32:03;95601.47;;;1.30;95.39
47750;BME280;49810;48.160;10.812;2022-11-06T02:34:35;95603.28;;;1.30;95.42
47750;BME280;49810;48.160;10.812;2022-11-06T02:37:08;95594.03;;;1.27;95.62
47750;BME280;49810;48.160;10.812;2022-11-06T02:39:38;95592.16;;;1.36;95.24
47750;BME280;49810;48.160;10.812;2022-11-06T02:42:11;95590.72;;;1.33;95.35
47750;BME280;49810;48.160;10.812;2022-11-06T02:44:42;95592.50;;;1.33;95.27
47750;BME280;49810;48.160;10.812;2022-11-06T02:47:12;95586.69;;;1.31;95.24
47750;BME280;49810;48.160;10.812;2022-11-06T02:49:44;95590.06;;;1.31;95.14
47750;BME280;49810;48.160;10.812;2022-11-06T02:52:17;95596.53;;;1.35;95.42
47750;BME280;49810;48.160;10.812;2022-11-06T02:54:51;95605.00;;;1.37;95.19
47750;BME280;49810;48.160;10.812;2022-11-06T02:57:24;95594.50;;;1.31;95.37
47750;BME280;49810;48.160;10.812;2022-11-06T02:59:59;95586.84;;;1.29;95.33
47750;BME280;49810;48.160;10.812;2022-11-06T03:02:31;95588.84;;;1.27;95.38
47750;BME280;49810;48.160;10.812;2022-11-06T03:05:04;95597.63;;;1.26;95.28
47750;BME280;49810;48.160;10.812;2022-11-06T03:07:36;95599.59;;;1.24;95.38
47750;BME280;49810;48.160;10.812;2022-11-06T03:10:07;95598.16;;;1.22;95.23
47750;BME280;49810;48.160;10.812;2022-11-06T03:12:46;95585.16;;;1.22;95.42
47750;BME280;49810;48.160;10.812;2022-11-06T03:15:22;95583.88;;;1.18;95.24
47750;BME280;49810;48.160;10.812;2022-11-06T03:17:54;95592.59;;;1.10;95.19
47750;BME280;49810;48.160;10.812;2022-11-06T03:20:30;95595.88;;;1.04;95.06
47750;BME280;49810;48.160;10.812;2022-11-06T03:23:09;95592.97;;;1.22;95.06
47750;BME280;49810;48.160;10.812;2022-11-06T03:25:43;95591.16;;;1.22;94.93
47750;BME280;49810;48.160;10.812;2022-11-06T03:28:20;95586.50;;;1.18;94.76
47750;BME280;49810;48.160;10.812;2022-11-06T03:30:54;95582.63;;;1.28;94.51
47750;BME280;49810;48.160;10.812;2022-11-06T03:33:31;95582.09;;;1.18;94.39
47750;BME280;49810;48.160;10.812;2022-11-06T03:36:03;95581.16;;;0.97;94.16
47750;BME280;49810;48.160;10.812;2022-11-06T03:38:37;95586.06;;;0.77;94.08
47750;BME280;49810;48.160;10.812;2022-11-06T03:41:11;95579.78;;;0.72;94.41
47750;BME280;49810;48.160;10.812;2022-11-06T03:43:44;95580.91;;;0.55;94.47
47750;BME280;49810;48.160;10.812;2022-11-06T03:46:16;95586.00;;;0.48;94.58
47750;BME280;49810;48.160;10.812;2022-11-06T03:48:50;95589.66;;;0.39;94.77
47750;BME280;49810;48.160;10.812;2022-11-06T03:51:21;95590.09;;;0.43;95.02
47750;BME280;49810;48.160;10.812;2022-11-06T03:53:55;95572.72;;;0.43;94.95
47750;BME280;49810;48.160;10.812;2022-11-06T03:56:30;95584.63;;;0.38;94.89
47750;BME280;49810;48.160;10.812;2022-11-06T03:59:03;95594.50;;;0.42;94.96
47750;BME280;49810;48.160;10.812;2022-11-06T04:01:34;95589.19;;;0.36;95.04
47750;BME280;49810;48.160;10.812;2022-11-06T04:04:05;95604.13;;;0.33;95.01
47750;BME280;49810;48.160;10.812;2022-11-06T04:06:41;95600.03;;;0.39;94.81
47750;BME280;49810;48.160;10.812;2022-11-06T04:09:12;95594.91;;;0.31;94.88
47750;BME280;49810;48.160;10.812;2022-11-06T04:12:00;95594.44;;;0.28;95.04
47750;BME280;49810;48.160;10.812;2022-11-06T04:14:50;95583.81;;;0.37;95.27
47750;BME280;49810;48.160;10.812;2022-11-06T04:17:21;95591.69;;;0.29;94.84
47750;BME280;49810;48.160;10.812;2022-11-06T04:19:53;95594.31;;;0.21;95.12
47750;BME280;49810;48.160;10.812;2022-11-06T04:22:43;95585.63;;;0.14;94.99
47750;BME280;49810;48.160;10.812;2022-11-06T04:25:24;95581.66;;;0.18;95.02
47750;BME280;49810;48.160;10.812;2022-11-06T04:28:22;95581.97;;;0.23;95.03
47750;BME280;49810;48.160;10.812;2022-11-06T04:31:04;95578.16;;;0.11;95.09
47750;BME280;49810;48.160;10.812;2022-11-06T04:33:38;95569.94;;;-0.01;94.94
47750;BME280;49810;48.160;10.812;2022-11-06T04:36:10;95564.09;;;-0.03;95.05
47750;BME280;49810;48.160;10.812;2022-11-06T04:38:50;95564.09;;;-0.03;94.90
47750;BME280;49810;48.160;10.812;2022-11-06T04:41:26;95558.41;;;0.02;94.79
47750;BME280;49810;48.160;10.812;2022-11-06T04:44:05;95560.38;;;0.00;94.84
47750;BME280;49810;48.160;10.812;2022-11-06T04:46:42;95558.56;;;0.00;95.00
47750;BME280;49810;48.160;10.812;2022-11-06T04:49:13;95560.53;;;-0.02;94.81
47750;BME280;49810;48.160;10.812;2022-11-06T04:51:43;95550.94;;;-0.01;94.91
47750;BME280;49810;48.160;10.812;2022-11-06T04:54:13;95550.03;;;-0.08;94.80
47750;BME280;49810;48.160;10.812;2022-11-06T04:56:41;95544.34;;;-0.12;94.99
47750;BME280;49810;48.160;10.812;2022-11-06T04:59:14;95545.97;;;-0.11;95.02
47750;BME280;49810;48.160;10.812;2022-11-06T05:01:45;95540.63;;;-0.09;95.21
47750;BME280;49810;48.160;10.812;2022-11-06T05:04:13;95530.22;;;-0.09;94.99
47750;BME280;49810;48.160;10.812;2022-11-06T05:06:42;95531.34;;;-0.12;94.90
47750;BME280;49810;48.160;10.812;2022-11-06T05:09:10;95534.59;;;-0.10;95.06
47750;BME280;49810;48.160;10.812;2022-11-06T05:11:38;95532.88;;;-0.17;95.01
47750;BME280;49810;48.160;10.812;2022-11-06T05:14:07;95523.28;;;-0.17;95.13
47750;BME280;49810;48.160;10.812;2022-11-06T05:16:35;95519.22;;;-0.19;94.96
47750;BME280;49810;48.160;10.812;2022-11-06T05:19:04;95515.19;;;-0.22;95.17
47750;BME280;49810;48.160;10.812;2022-11-06T05:21:32;95503.66;;;-0.19;95.10
47750;BME280;49810;48.160;10.812;2022-11-06T05:24:23;95512.44;;;-0.20;95.04
47750;BME280;49810;48.160;10.812;2022-11-06T05:26:51;95503.66;;;-0.19;95.04
47750;BME280;49810;48.160;10.812;2022-11-06T05:29:25;95494.06;;;-0.19;94.94
47750;BME280;49810;48.160;10.812;2022-11-06T05:31:53;95498.28;;;-0.18;95.09
47750;BME280;49810;48.160;10.812;2022-11-06T05:34:22;95494.06;;;-0.19;95.02
47750;BME280;49810;48.160;10.812;2022-11-06T05:36:51;95486.16;;;-0.25;94.97
47750;BME280;49810;48.160;10.812;2022-11-06T05:39:19;95484.56;;;-0.26;95.06
47750;BME280;49810;48.160;10.812;2022-11-06T05:41:47;95485.53;;;-0.27;94.79
47750;BME280;49810;48.160;10.812;2022-11-06T05:44:16;95481.41;;;-0.22;95.00
47750;BME280;49810;48.160;10.812;2022-11-06T05:46:44;95479.06;;;-0.09;95.08
47750;BME280;49810;48.160;10.812;2022-11-06T05:49:16;95470.94;;;-0.06;95.08
47750;BME280;49810;48.160;10.812;2022-11-06T05:51:46;95478.72;;;-0.06;94.92
47750;BME280;49810;48.160;10.812;2022-11-06T05:54:14;95483.66;;;0.04;95.06
47750;BME280;49810;48.160;10.812;2022-11-06T05:56:42;95479.13;;;0.06;95.17
47750;BME280;49810;48.160;10.812;2022-11-06T05:59:11;95479.06;;;0.14;95.25
47750;BME280;49810;48.160;10.812;2022-11-06T06:01:39;95481.94;;;0.19;95.47
47750;BME280;49810;48.160;10.812;2022-11-06T06:04:07;95471.16;;;0.22;95.47
47750;BME280;49810;48.160;10.812;2022-11-06T06:06:36;95463.56;;;0.21;95.68
47750;BME280;49810;48.160;10.812;2022-11-06T06:09:05;95467.28;;;0.18;95.62
47750;BME280;49810;48.160;10.812;2022-11-06T06:11:33;95467.94;;;0.20;95.79
47750;BME280;49810;48.160;10.812;2022-11-06T06:14:01;95470.38;;;0.22;95.83
47750;BME280;49810;48.160;10.812;2022-11-06T06:16:29;95471.16;;;0.22;95.64
47750;BME280;49810;48.160;10.812;2022-11-06T06:18:58;95469.16;;;0.09;95.78
47750;BME280;49810;48.160;10.812;2022-11-06T06:21:26;95463.16;;;0.09;95.96
47750;BME280;49810;48.160;10.812;2022-11-06T06:23:54;95470.78;;;0.10;95.83
47750;BME280;49810;48.160;10.812;2022-11-06T06:26:24;95475.81;;;0.12;95.95
47750;BME280;49810;48.160;10.812;2022-11-06T06:28:52;95467.84;;;0.13;95.85
47750;BME280;49810;48.160;10.812;2022-11-06T06:31:20;95473.13;;;0.20;95.94
47750;BME280;49810;48.160;10.812;2022-11-06T06:33:48;95476.56;;;0.21;95.84
47750;BME280;49810;48.160;10.812;2022-11-06T06:36:16;95490.53;;;0.19;95.99
47750;BME280;49810;48.160;10.812;2022-11-06T06:38:44;95491.41;;;0.12;95.92
47750;BME280;49810;48.160;10.812;2022-11-06T06:41:12;95501.28;;;0.17;95.95
47750;BME280;49810;48.160;10.812;2022-11-06T06:43:42;95498.78;;;0.23;95.96
47750;BME280;49810;48.160;10.812;2022-11-06T06:46:10;95495.81;;;0.26;95.49
47750;BME280;49810;48.160;10.812;2022-11-06T06:48:38;95503.91;;;0.31;95.74
47750;BME280;49810;48.160;10.812;2022-11-06T06:51:07;95503.50;;;0.42;95.83
47750;BME280;49810;48.160;10.812;2022-11-06T06:53:35;95507.56;;;0.74;95.96
47750;BME280;49810;48.160;10.812;2022-11-06T06:56:04;95513.72;;;0.58;95.88
47750;BME280;49810;48.160;10.812;2022-11-06T06:58:32;95514.03;;;0.78;96.02
47750;BME280;49810;48.160;10.812;2022-11-06T07:01:03;95502.91;;;0.84;95.92
47750;BME280;49810;48.160;10.812;2022-11-06T07:03:32;95490.78;;;0.76;95.96
47750;BME280;49810;48.160;10.812;2022-11-06T07:06:00;95499.13;;;0.86;96.18
47750;BME280;49810;48.160;10.812;2022-11-06T07:08:28;95504.00;;;1.04;96.13
47750;BME280;49810;48.160;10.812;2022-11-06T07:11:00;95509.00;;;0.91;95.93
47750;BME280;49810;48.160;10.812;2022-11-06T07:13:28;95511.06;;;0.81;96.02
47750;BME280;49810;48.160;10.812;2022-11-06T07:16:04;95492.84;;;0.95;95.97
47750;BME280;49810;48.160;10.812;2022-11-06T07:18:33;95488.38;;;1.04;95.96
47750;BME280;49810;48.160;10.812;2022-11-06T07:21:03;95480.81;;;1.09;95.83
47750;BME280;49810;48.160;10.812;2022-11-06T07:23:32;95487.28;;;1.13;95.88
47750;BME280;49810;48.160;10.812;2022-11-06T07:26:00;95484.28;;;1.30;96.00
47750;BME280;49810;48.160;10.812;2022-11-06T07:28:29;95490.31;;;1.31;95.90
47750;BME280;49810;48.160;10.812;2022-11-06T07:30:58;95492.44;;;1.42;95.78
47750;BME280;49810;48.160;10.812;2022-11-06T07:33:28;95488.66;;;1.44;96.03
47750;BME280;49810;48.160;10.812;2022-11-06T07:36:01;95476.63;;;1.43;95.68
47750;BME280;49810;48.160;10.812;2022-11-06T07:38:29;95475.19;;;1.55;95.69
47750;BME280;49810;48.160;10.812;2022-11-06T07:41:00;95480.22;;;1.57;95.51
47750;BME280;49810;48.160;10.812;2022-11-06T07:43:28;95469.63;;;1.79;95.66
47750;BME280;49810;48.160;10.812;2022-11-06T07:45:58;95475.25;;;1.62;95.25
47750;BME280;49810;48.160;10.812;2022-11-06T07:48:31;95467.50;;;1.68;95.32
47750;BME280;49810;48.160;10.812;2022-11-06T07:51:01;95461.94;;;1.92;95.20
47750;BME280;49810;48.160;10.812;2022-11-06T07:53:29;95458.81;;;1.82;95.00
47750;BME280;49810;48.160;10.812;2022-11-06T07:55:58;95463.03;;;1.83;95.06
47750;BME280;49810;48.160;10.812;2022-11-06T07:58:26;95471.78;;;1.76;94.84
47750;BME280;49810;48.160;10.812;2022-11-06T08:00:56;95480.94;;;1.86;94.95
47750;BME280;49810;48.160;10.812;2022-11-06T08:03:25;95476.94;;;1.90;94.82
47750;BME280;49810;48.160;10.812;2022-11-06T08:05:57;95467.44;;;2.04;94.92
47750;BME280;49810;48.160;10.812;2022-11-06T08:08:26;95460.09;;;1.93;94.73
47750;BME280;49810;48.160;10.812;2022-11-06T08:10:54;95457.06;;;2.10;94.60
47750;BME280;49810;48.160;10.812;2022-11-06T08:13:22;95452.75;;;2.24;94.66
47750;BME280;49810;48.160;10.812;2022-11-06T08:15:51;95453.19;;;2.55;94.71
47750;BME280;49810;48.160;10.812;2022-11-06T08:18:20;95443.13;;;2.79;94.51
47750;BME280;49810;48.160;10.812;2022-11-06T08:20:51;95450.13;;;3.13;94.57
47750;BME280;49810;48.160;10.812;2022-11-06T08:23:20;95450.69;;;3.02;93.75
47750;BME280;49810;48.160;10.812;2022-11-06T08:25:48;95434.41;;;3.00;93.61
47750;BME280;49810;48.160;10.812;2022-11-06T08:28:20;95425.59;;;3.07;93.49
47750;BME280;49810;48.160;10.812;2022-11-06T08:30:48;95415.78;;;3.16;93.43
47750;BME280;49810;48.160;10.812;2022-11-06T08:33:16;95407.19;;;3.28;93.44
47750;BME280;49810;48.160;10.812;2022-11-06T08:35:44;95402.66;;;3.63;93.56
47750;BME280;49810;48.160;10.812;2022-11-06T08:38:13;95399.22;;;3.62;93.33
47750;BME280;49810;48.160;10.812;2022-11-06T08:40:43;95392.63;;;3.73;93.52
47750;BME280;49810;48.160;10.812;2022-11-06T08:43:18;95383.38;;;3.83;92.86
47750;BME280;49810;48.160;10.812;2022-11-06T08:45:46;95378.75;;;3.98;92.96
47750;BME280;49810;48.160;10.812;2022-11-06T08:48:14;95372.69;;;4.30;92.73
47750;BME280;49810;48.160;10.812;2022-11-06T08:50:43;95362.22;;;4.30;92.50
47750;BME280;49810;48.160;10.812;2022-11-06T08:53:11;95355.19;;;4.50;92.61
47750;BME280;49810;48.160;10.812;2022-11-06T08:55:39;95363.03;;;4.37;92.02
47750;BME280;49810;48.160;10.812;2022-11-06T08:58:09;95352.56;;;4.44;91.67
47750;BME280;49810;48.160;10.812;2022-11-06T09:00:37;95354.13;;;4.71;91.94
47750;BME280;49810;48.160;10.812;2022-11-06T09:03:06;95346.91;;;5.10;91.85
47750;BME280;49810;48.160;10.812;2022-11-06T09:05:38;95338.84;;;5.12;91.08
47750;BME280;49810;48.160;10.812;2022-11-06T09:08:08;95333.50;;;5.31;91.07
47750;BME280;49810;48.160;10.812;2022-11-06T09:10:37;95324.06;;;5.55;90.26
47750;BME280;49810;48.160;10.812;2022-11-06T09:13:05;95320.50;;;5.80;89.45
47750;BME280;49810;48.160;10.812;2022-11-06T09:15:35;95317.34;;;5.65;89.01
47750;BME280;49810;48.160;10.812;2022-11-06T09:18:03;95313.91;;;5.71;88.88
47750;BME280;49810;48.160;10.812;2022-11-06T09:20:31;95301.66;;;5.90;89.22
47750;BME280;49810;48.160;10.812;2022-11-06T09:23:00;95310.66;;;6.00;88.11
47750;BME280;49810;48.160;10.812;2022-11-06T09:25:29;95314.97;;;5.88;88.36
47750;BME280;49810;48.160;10.812;2022-11-06T09:27:58;95301.22;;;5.93;88.40
47750;BME280;49810;48.160;10.812;2022-11-06T09:30:28;95292.25;;;6.25;88.16
47750;BME280;49810;48.160;10.812;2022-11-06T09:33:00;95297.69;;;6.66;86.74
47750;BME280;49810;48.160;10.812;2022-11-06T09:35:31;95286.66;;;6.75;86.60
47750;BME280;49810;48.160;10.812;2022-11-06T09:38:00;95269.56;;;7.14;85.56
47750;BME280;49810;48.160;10.812;2022-11-06T09:40:32;95262.94;;;7.11;85.09
47750;BME280;49810;48.160;10.812;2022-11-06T09:43:18;95262.41;;;7.21;83.87
47750;BME280;49810;48.160;10.812;2022-11-06T09:46:21;95247.69;;;7.72;83.99
47750;BME280;49810;48.160;10.812;2022-11-06T09:48:55;95235.19;;;7.68;82.57
47750;BME280;49810;48.160;10.812;2022-11-06T09:51:32;95234.59;;;7.43;83.20
47750;BME280;49810;48.160;10.812;2022-11-06T09:54:08;95227.56;;;7.25;83.43
47750;BME280;49810;48.160;10.812;2022-11-06T09:56:40;95225.31;;;7.40;84.08
47750;BME280;49810;48.160;10.812;2022-11-06T09:59:11;95224.91;;;7.55;83.67
47750;BME280;49810;48.160;10.812;2022-11-06T10:01:43;95223.53;;;7.64;81.90
47750;BME280;49810;48.160;10.812;2022-11-06T10:04:22;95210.16;;;7.88;81.00
47750;BME280;49810;48.160;10.812;2022-11-06T10:06:54;95201.91;;;7.96;79.59
47750;BME280;49810;48.160;10.812;2022-11-06T10:09:23;95211.53;;;8.14;79.04
47750;BME280;49810;48.160;10.812;2022-11-06T10:11:58;95190.69;;;8.35;78.42
47750;BME280;49810;48.160;10.812;2022-11-06T10:14:39;95183.59;;;8.24;78.16
47750;BME280;49810;48.160;10.812;2022-11-06T10:17:19;95181.66;;;8.31;77.34
47750;BME280;49810;48.160;10.812;2022-11-06T10:19:56;95177.94;;;8.44;77.08
47750;BME280;49810;48.160;10.812;2022-11-06T10:22:32;95184.16;;;8.77;75.04
47750;BME280;49810;48.160;10.812;2022-11-06T10:25:08;95178.84;;;8.89;75.96
47750;BME280;49810;48.160;10.812;2022-11-06T10:27:53;95184.53;;;8.69;75.57
47750;BME280;49810;48.160;10.812;2022-11-06T10:30:32;95181.69;;;8.87;76.17
47750;BME280;49810;48.160;10.812;2022-11-06T10:33:18;95177.97;;;8.72;76.59
47750;BME280;49810;48.160;10.812;2022-11-06T10:35:53;95165.38;;;9.02;75.47
47750;BME280;49810;48.160;10.812;2022-11-06T10:38:28;95166.31;;;8.96;75.31
47750;BME280;49810;48.160;10.812;2022-11-06T10:41:00;95154.72;;;8.97;74.77
47750;BME280;49810;48.160;10.812;2022-11-06T10:43:31;95159.00;;;9.14;74.86
47750;BME280;49810;48.160;10.812;2022-11-06T10:46:09;95154.84;;;9.35;73.51
47750;BME280;49810;48.160;10.812;2022-11-06T10:48:42;95146.31;;;9.28;74.24
47750;BME280;49810;48.160;10.812;2022-11-06T10:51:27;95145.84;;;9.64;73.29
47750;BME280;49810;48.160;10.812;2022-11-06T10:54:01;95143.22;;;9.47;72.35
47750;BME280;49810;48.160;10.812;2022-11-06T10:56:40;95140.72;;;9.57;73.02
47750;BME280;49810;48.160;10.812;2022-11-06T10:59:14;95137.03;;;9.58;72.72
47750;BME280;49810;48.160;10.812;2022-11-06T11:01:43;95144.22;;;9.79;71.92
47750;BME280;49810;48.160;10.812;2022-11-06T11:04:11;95140.94;;;9.72;72.13
47750;BME280;49810;48.160;10.812;2022-11-06T11:06:41;95139.22;;;9.99;70.88
47750;BME280;49810;48.160;10.812;2022-11-06T11:09:27;95126.75;;;9.78;71.21
47750;BME280;49810;48.160;10.812;2022-11-06T11:11:57;95124.03;;;9.73;71.39
47750;BME280;49810;48.160;10.812;2022-11-06T11:14:26;95112.19;;;10.09;70.27
47750;BME280;49810;48.160;10.812;2022-11-06T11:16:58;95100.94;;;10.18;70.16
47750;BME280;49810;48.160;10.812;2022-11-06T11:19:33;95105.66;;;10.38;68.92
47750;BME280;49810;48.160;10.812;2022-11-06T11:22:04;95092.34;;;10.28;69.15
47750;BME280;49810;48.160;10.812;2022-11-06T11:24:58;95089.69;;;10.76;68.21
47750;BME280;49810;48.160;10.812;2022-11-06T11:27:27;95090.63;;;10.65;67.73
47750;BME280;49810;48.160;10.812;2022-11-06T11:29:55;95086.34;;;10.85;66.53
47750;BME280;49810;48.160;10.812;2022-11-06T11:32:28;95079.03;;;11.24;64.99
47750;BME280;49810;48.160;10.812;2022-11-06T11:34:57;95069.09;;;11.09;65.27
47750;BME280;49810;48.160;10.812;2022-11-06T11:37:29;95071.50;;;11.11;65.39
47750;BME280;49810;48.160;10.812;2022-11-06T11:40:17;95070.94;;;11.72;63.06
47750;BME280;49810;48.160;10.812;2022-11-06T11:42:46;95050.41;;;12.66;59.87
47750;BME280;49810;48.160;10.812;2022-11-06T11:45:17;95043.00;;;13.68;56.57
47750;BME280;49810;48.160;10.812;2022-11-06T11:47:48;95040.75;;;14.20;54.25
47750;BME280;49810;48.160;10.812;2022-11-06T11:50:29;95031.94;;;15.21;51.97
47750;BME280;49810;48.160;10.812;2022-11-06T11:53:04;95037.38;;;15.06;51.53
47750;BME280;49810;48.160;10.812;2022-11-06T11:55:39;95038.63;;;15.19;51.26
47750;BME280;49810;48.160;10.812;2022-11-06T11:58:19;95048.47;;;14.80;51.81
47750;BME280;49810;48.160;10.812;2022-11-06T12:00:52;95057.47;;;14.30;53.05
47750;BME280;49810;48.160;10.812;2022-11-06T12:03:21;95053.66;;;14.51;51.80
47750;BME280;49810;48.160;10.812;2022-11-06T12:05:53;95060.00;;;14.60;50.70
47750;BME280;49810;48.160;10.812;2022-11-06T12:08:24;95071.84;;;14.19;50.59
47750;BME280;49810;48.160;10.812;2022-11-06T12:11:00;95072.47;;;14.70;49.70
47750;BME280;49810;48.160;10.812;2022-11-06T12:13:29;95070.47;;;14.95;49.41
47750;BME280;49810;48.160;10.812;2022-11-06T12:16:00;95064.44;;;14.80;50.08
47750;BME280;49810;48.160;10.812;2022-11-06T12:18:31;95049.59;;;15.46;48.29
47750;BME280;49810;48.160;10.812;2022-11-06T12:21:02;95048.34;;;14.95;49.98
47750;BME280;49810;48.160;10.812;2022-11-06T12:23:37;95039.88;;;15.26;49.81
47750;BME280;49810;48.160;10.812;2022-11-06T12:26:12;95037.41;;;14.58;51.65
47750;BME280;49810;48.160;10.812;2022-11-06T12:28:45;95025.31;;;14.75;51.27
47750;BME280;49810;48.160;10.812;2022-11-06T12:31:29;95012.94;;;15.66;49.29
47750;BME280;49810;48.160;10.812;2022-11-06T12:34:05;95018.31;;;15.28;49.03
47750;BME280;49810;48.160;10.812;2022-11-06T12:36:56;95011.84;;;15.67;47.84
47750;BME280;49810;48.160;10.812;2022-11-06T12:39:32;95001.13;;;15.72;48.32
47750;BME280;49810;48.160;10.812;2022-11-06T12:42:07;94991.03;;;16.16;47.06
47750;BME280;49810;48.160;10.812;2022-11-06T12:44:38;94979.00;;;16.19;47.18
47750;BME280;49810;48.160;10.812;2022-11-06T12:47:12;94988.06;;;15.71;48.16
47750;BME280;49810;48.160;10.812;2022-11-06T12:50:07;94970.72;;;16.39;46.82
47750;BME280;49810;48.160;10.812;2022-11-06T12:52:53;94951.59;;;16.32;48.13
47750;BME280;49810;48.160;10.812;2022-11-06T12:55:36;94939.28;;;15.94;48.45
47750;BME280;49810;48.160;10.812;2022-11-06T12:58:24;94937.44;;;16.55;46.52
47750;BME280;49810;48.160;10.812;2022-11-06T13:01:00;94930.22;;;15.71;48.43
47750;BME280;49810;48.160;10.812;2022-11-06T13:06:27;94912.41;;;16.51;46.49
47750;BME280;49810;48.160;10.812;2022-11-06T13:09:05;94905.06;;;16.01;47.99
47750;BME280;49810;48.160;10.812;2022-11-06T13:11:44;94913.81;;;16.25;45.94
47750;BME280;49810;48.160;10.812;2022-11-06T13:14:20;94910.78;;;16.31;46.28
47750;BME280;49810;48.160;10.812;2022-11-06T13:16:58;94906.47;;;15.93;47.67
47750;BME280;49810;48.160;10.812;2022-11-06T13:19:32;94913.06;;;16.43;46.84
47750;BME280;49810;48.160;10.812;2022-11-06T13:22:17;94910.63;;;16.04;46.81
47750;BME280;49810;48.160;10.812;2022-11-06T13:24:53;94909.09;;;16.40;46.43
47750;BME280;49810;48.160;10.812;2022-11-06T13:27:32;94903.69;;;16.45;46.57